< < Back
Terminal Aerodrome Forecast


Current Version              Previous Versions:   1  2  3  4  5  6  7  8  9  

Terminal Aerodrome Forecast

181
FTUS44 KBMX 021734
TAFBHM
TAF
KBHM 021734Z 0218/0318 24010G17KT P6SM VCSH BKN040
     FM030000 22012KT P6SM SCT025 OVC200
     FM030600 21012G17KT P6SM BKN025
     FM031200 23012G17KT P6SM VCTS BKN015CB=



Latest METAR

965
SAUS70 KWBC 030800 RRD
MTRBHM
METAR KBHM 030753Z 22010KT 10SM FEW042 FEW055 BKN065 26/23 A2996 RMK AO2
SLP136 T02610228


USA.gov is the U.S. government's official web portal to all federal, state and local government web resources and services.